< < Back
Terminal Aerodrome Forecast


Current Version              Previous Versions:   1  2  3  4  5  6  7  8  9  

Terminal Aerodrome Forecast

192
FTUS44 KBMX 091720
TAFMGM
TAF
KMGM 091720Z 0918/1018 28015G25KT P6SM BKN050
     FM100200 28008KT P6SM FEW050
     FM101500 29012G18KT P6SM SKC=

Latest METAR

183
SAUS80 KWBC 102200 RRA
MTRMGM
METAR KMGM 102153Z 26011KT 10SM CLR 08/M11 A3021 RMK AO2 SLP231
T00781111


USA.gov is the U.S. government's official web portal to all federal, state and local government web resources and services.